Time;durP1;ratioP1;P1;durP2;ratioP2;P2;SDS_P1;SDS_P2;PMS_P1;PMS_P2;Temp;Humidity;BMP_temperature;BMP_pressure;BME280_temperature;BME280_humidity;BME280_pressure;Samples;Min_cycle;Max_cycle;Signal;HPM_P1;HPM_P2
2021/05/11 00:00:52;;;;;;;8.20;5.18;;;;;;;12.05;88.53;98059.16;5066948;28;20039;-71
2021/05/11 00:03:17;;;;;;;8.27;5.75;;;;;;;12.05;89.03;98061.88;5054369;28;20036;-71
2021/05/11 00:05:42;;;;;;;6.25;4.43;;;;;;;12.03;88.85;98074.84;5055520;28;20135;-72
2021/05/11 00:08:08;;;;;;;7.18;4.78;;;;;;;11.96;88.86;98041.56;5036985;28;20024;-74
2021/05/11 00:10:33;;;;;;;7.75;5.57;;;;;;;12.04;89.12;98053.97;5038273;28;20029;-72
2021/05/11 00:12:59;;;;;;;7.20;5.30;;;;;;;11.97;88.45;98045.94;5055403;28;20025;-72
2021/05/11 00:15:24;;;;;;;8.85;5.38;;;;;;;12.01;88.64;98054.44;5056178;28;20085;-75
2021/05/11 00:17:50;;;;;;;7.55;5.13;;;;;;;12.06;88.75;98054.56;5044691;28;20478;-73
2021/05/11 00:20:18;;;;;;;7.38;4.68;;;;;;;12.06;88.53;98047.25;5054406;28;20047;-73
2021/05/11 00:22:43;;;;;;;6.40;4.68;;;;;;;12.01;88.83;98049.00;5040656;28;20035;-74
2021/05/11 00:25:09;;;;;;;6.65;5.05;;;;;;;12.04;88.28;98052.06;5070170;28;20025;-73
2021/05/11 00:27:34;;;;;;;7.18;4.72;;;;;;;11.95;88.88;98028.25;5058200;28;20436;-74
2021/05/11 00:30:00;;;;;;;6.00;4.50;;;;;;;11.89;88.77;98019.16;5072170;28;20039;-74
2021/05/11 00:32:25;;;;;;;5.85;4.10;;;;;;;11.90;88.60;98028.13;5060937;28;20112;-74
2021/05/11 00:34:50;;;;;;;7.68;4.72;;;;;;;11.89;89.08;98027.28;5057169;28;20031;-74
2021/05/11 00:37:16;;;;;;;6.72;4.43;;;;;;;11.90;88.90;98036.25;5039834;28;20025;-74
2021/05/11 00:39:41;;;;;;;4.95;3.88;;;;;;;11.91;88.70;98027.88;5057951;28;20367;-74
2021/05/11 00:42:06;;;;;;;7.40;4.88;;;;;;;11.93;88.88;98028.47;5039067;28;20036;-74
2021/05/11 00:44:33;;;;;;;5.50;4.30;;;;;;;11.98;88.60;98046.78;5057391;28;20035;-74
2021/05/11 00:47:04;;;;;;;5.25;3.92;;;;;;;12.03;88.71;98033.34;5069469;28;20032;-74
2021/05/11 00:49:32;;;;;;;6.05;4.25;;;;;;;12.05;88.78;98045.63;5037793;28;20106;-74
2021/05/11 00:51:59;;;;;;;6.00;4.05;;;;;;;12.07;88.25;98019.06;5059632;28;20028;-74
2021/05/11 00:54:26;;;;;;;6.55;4.68;;;;;;;12.03;87.82;98023.31;5057273;28;20017;-72
2021/05/11 00:56:52;;;;;;;6.50;4.68;;;;;;;11.98;88.09;98035.94;5061850;28;20543;-72
2021/05/11 00:59:27;;;;;;;7.20;4.45;;;;;;;11.89;88.43;98029.97;5060229;28;20028;-72
2021/05/11 01:01:53;;;;;;;7.93;5.13;;;;;;;11.81;88.72;98022.16;5058115;28;20048;-71
2021/05/11 01:04:19;;;;;;;6.53;5.03;;;;;;;11.79;89.19;98019.69;5055573;28;20021;-72
2021/05/11 01:06:45;;;;;;;6.20;5.10;;;;;;;11.77;89.16;98000.13;5056825;28;20054;-71
2021/05/11 01:09:10;;;;;;;8.05;5.32;;;;;;;11.89;88.95;98012.91;5036114;28;20086;-75
2021/05/11 01:11:36;;;;;;;6.65;5.40;;;;;;;11.85;88.93;98015.22;5054181;28;20040;-72
2021/05/11 01:14:03;;;;;;;8.43;5.60;;;;;;;11.80;89.40;98015.09;5040644;28;20402;-75
2021/05/11 01:16:30;;;;;;;7.43;5.78;;;;;;;12.02;88.38;98012.69;5056382;28;20032;-72
2021/05/11 01:19:00;;;;;;;6.95;5.32;;;;;;;12.10;87.62;98012.34;5056858;28;20028;-72
2021/05/11 01:26:32;;;;;;;8.43;5.90;;;;;;;11.93;88.94;97990.53;5055733;28;20029;-73
2021/05/11 01:29:09;;;;;;;8.27;5.85;;;;;;;12.06;88.66;97990.31;5062704;28;20094;-73
2021/05/11 01:45:35;;;;;;;8.60;6.40;;;;;;;12.15;88.49;97958.25;5064189;28;20064;-73
2021/05/11 01:51:05;;;;;;;8.10;6.38;;;;;;;12.13;88.52;97978.53;5051641;28;20043;-72
2021/05/11 01:53:51;;;;;;;7.45;5.72;;;;;;;12.16;88.17;97978.91;5052810;28;20027;-73
2021/05/11 02:09:56;;;;;;;10.40;6.47;;;;;;;12.22;87.93;97958.97;5055970;28;20380;-72
2021/05/11 02:23:30;;;;;;;7.43;5.57;;;;;;;12.15;88.22;97995.41;5070927;28;20084;-75
2021/05/11 02:25:56;;;;;;;6.82;5.32;;;;;;;12.10;88.11;97997.97;5046657;28;20057;-74
2021/05/11 02:28:23;;;;;;;7.70;5.78;;;;;;;12.00;88.65;97980.41;5057133;28;20044;-74
2021/05/11 02:30:48;;;;;;;9.02;6.05;;;;;;;12.07;88.84;97996.56;5062005;28;20024;-75
2021/05/11 02:33:13;;;;;;;8.15;5.82;;;;;;;12.02;88.47;97970.16;5063378;28;20085;-75
2021/05/11 02:35:39;;;;;;;9.50;6.35;;;;;;;12.02;88.52;97985.59;5057376;28;20099;-74
2021/05/11 02:38:04;;;;;;;7.95;5.53;;;;;;;12.13;88.52;97998.38;5041147;28;20029;-75
2021/05/11 02:40:29;;;;;;;11.95;7.22;;;;;;;12.11;88.57;97972.53;5063226;28;20079;-74
2021/05/11 02:43:00;;;;;;;11.65;7.57;;;;;;;12.28;88.26;97984.34;5064494;28;20506;-71
2021/05/11 02:45:26;;;;;;;11.32;8.57;;;;;;;12.18;88.49;97979.50;5055096;28;20413;-74
2021/05/11 02:47:51;;;;;;;11.88;7.72;;;;;;;12.16;87.92;97970.78;5061517;28;20020;-74
2021/05/11 02:50:35;;;;;;;12.80;8.20;;;;;;;12.22;88.29;97977.16;5057052;28;20032;-75
2021/05/11 02:53:02;;;;;;;12.48;8.45;;;;;;;12.19;88.77;97964.06;5084759;22;20068;-68
2021/05/11 02:55:27;;;;;;;11.13;7.78;;;;;;;12.25;88.41;97976.66;5064076;28;20027;-68
2021/05/11 02:57:54;;;;;;;13.13;8.38;;;;;;;12.14;89.02;97958.50;5063375;28;20488;-67
2021/05/11 03:00:21;;;;;;;11.85;8.30;;;;;;;12.24;88.83;97980.47;5051713;28;20031;-69
2021/05/11 03:02:46;;;;;;;14.10;8.90;;;;;;;12.14;88.70;97966.66;5054209;28;20381;-67
2021/05/11 03:05:12;;;;;;;13.23;8.48;;;;;;;12.25;88.94;97984.81;5067088;28;20020;-71
2021/05/11 03:07:38;;;;;;;13.38;8.82;;;;;;;12.24;88.73;97977.75;5065398;28;20043;-68
2021/05/11 03:10:08;;;;;;;13.10;8.93;;;;;;;12.22;89.00;97980.69;5071740;28;20099;-67
2021/05/11 03:12:33;;;;;;;13.95;8.80;;;;;;;12.13;88.67;97959.56;5071975;28;20055;-67
2021/05/11 03:14:58;;;;;;;17.23;9.70;;;;;;;12.17;88.76;97974.31;5074694;28;20103;-67
2021/05/11 03:17:24;;;;;;;16.63;9.85;;;;;;;12.14;88.75;97964.75;5071167;28;20142;-74
2021/05/11 03:19:49;;;;;;;14.70;9.02;;;;;;;12.07;88.99;97945.88;5072941;28;20036;-75
2021/05/11 03:22:14;;;;;;;17.83;10.15;;;;;;;12.21;88.13;97964.66;5060870;28;20025;-75
2021/05/11 03:24:44;;;;;;;15.02;9.45;;;;;;;12.07;88.75;97956.72;5067721;28;20760;-72
2021/05/11 03:27:10;;;;;;;;;;;;;;;12.15;89.06;97971.00;5057889;28;20397;-72
2021/05/11 03:29:35;;;;;;;18.73;9.70;;;;;;;12.16;89.10;97972.66;5069908;28;20008;-72
2021/05/11 03:32:00;;;;;;;17.25;10.98;;;;;;;12.13;89.56;97982.09;5066071;28;20478;-72
2021/05/11 03:34:26;;;;;;;17.20;10.43;;;;;;;12.08;89.07;97973.84;5049675;28;20474;-73
2021/05/11 03:36:51;;;;;;;19.17;11.23;;;;;;;11.91;89.97;97962.81;5075523;28;20025;-73
2021/05/11 03:39:16;;;;;;;18.20;10.55;;;;;;;12.04;89.34;97973.44;5044319;28;20055;-74
2021/05/11 03:42:17;;;;;;;18.67;10.73;;;;;;;12.10;89.15;97971.69;5068312;28;20032;-75
2021/05/11 03:44:34;;;;;;;20.20;11.23;;;;;;;12.09;89.04;97945.66;5058125;28;20444;-76
2021/05/11 03:46:59;;;;;;;21.45;11.45;;;;;;;12.22;89.57;97953.56;5046020;28;20051;-73
2021/05/11 03:49:24;;;;;;;20.30;10.90;;;;;;;12.18;89.24;97944.25;5061727;28;20494;-72
2021/05/11 03:51:50;;;;;;;19.52;11.25;;;;;;;12.18;89.47;97949.69;5051098;28;20036;-74
2021/05/11 03:54:15;;;;;;;16.88;10.20;;;;;;;12.18;89.22;97956.97;5056315;28;20033;-73
2021/05/11 03:56:41;;;;;;;19.05;10.70;;;;;;;12.25;88.89;97947.66;5057012;28;20024;-74
2021/05/11 03:59:06;;;;;;;22.20;11.95;;;;;;;12.19;89.39;97928.81;5064443;28;20618;-74
2021/05/11 04:01:33;;;;;;;20.98;12.30;;;;;;;12.25;89.16;97939.53;5042567;28;20032;-74
2021/05/11 04:03:58;;;;;;;23.30;12.63;;;;;;;12.28;89.54;97936.34;5070896;28;20523;-69
2021/05/11 04:06:24;;;;;;;25.00;13.63;;;;;;;12.26;89.35;97927.63;5073428;28;20021;-70
2021/05/11 04:09:06;;;;;;;20.95;11.35;;;;;;;12.27;89.19;97923.84;5042564;28;20024;-71
2021/05/11 04:16:27;;;;;;;25.25;13.80;;;;;;;12.32;89.01;97925.84;5066052;28;20035;-73
2021/05/11 04:18:54;;;;;;;26.20;13.85;;;;;;;12.40;89.05;97941.78;5042019;28;20021;-70
2021/05/11 04:21:21;;;;;;;24.77;13.27;;;;;;;12.45;88.07;97941.06;5067567;28;20024;-72
2021/05/11 04:23:47;;;;;;;26.17;14.15;;;;;;;12.49;88.47;97934.09;5068689;28;20025;-71
2021/05/11 04:26:14;;;;;;;28.13;13.93;;;;;;;12.54;88.12;97930.69;5055613;28;20173;-69
2021/05/11 04:28:40;;;;;;;23.20;12.88;;;;;;;12.56;87.87;97925.84;5036318;28;20051;-69
2021/05/11 04:31:06;;;;;;;25.33;12.75;;;;;;;12.61;87.85;97932.22;5059336;28;20039;-71
2021/05/11 04:33:32;;;;;;;25.20;13.05;;;;;;;12.55;87.66;97913.31;5056374;28;20025;-71
2021/05/11 04:35:57;;;;;;;24.85;13.13;;;;;;;12.73;87.10;97929.47;5070562;28;20466;-73
2021/05/11 04:38:23;;;;;;;23.90;12.25;;;;;;;12.80;87.29;97923.91;5049999;28;20029;-69
2021/05/11 04:40:52;;;;;;;21.30;11.77;;;;;;;12.83;87.06;97932.38;5065957;28;20466;-70
2021/05/11 04:43:18;;;;;;;23.90;12.48;;;;;;;12.87;86.71;97938.19;5073842;28;20035;-75
2021/05/11 04:45:45;;;;;;;23.08;11.43;;;;;;;12.79;86.37;97925.00;5072874;28;20643;-73
2021/05/11 04:48:10;;;;;;;22.40;12.18;;;;;;;12.85;86.32;97935.69;5062540;28;20032;-76
2021/05/11 04:50:36;;;;;;;22.42;12.18;;;;;;;12.88;86.23;97924.34;5052463;28;20359;-70
2021/05/11 04:53:02;;;;;;;22.48;12.07;;;;;;;12.88;86.05;97901.81;5069456;28;20033;-77
2021/05/11 04:55:27;;;;;;;22.52;11.60;;;;;;;12.97;85.90;97910.41;5051730;28;20108;-72
2021/05/11 04:57:52;;;;;;;18.55;10.70;;;;;;;12.89;85.76;97896.16;5039765;28;20029;-70
2021/05/11 05:00:18;;;;;;;20.20;10.82;;;;;;;12.96;85.42;97927.78;5041993;28;20060;-71
2021/05/11 05:02:48;;;;;;;18.50;10.27;;;;;;;12.97;85.42;97932.97;5044654;28;20032;-72
2021/05/11 05:05:15;;;;;;;19.83;10.95;;;;;;;12.89;85.12;97928.75;5045608;28;20028;-75
2021/05/11 05:07:40;;;;;;;17.92;10.57;;;;;;;12.96;85.15;97936.72;5046252;28;20025;-71
2021/05/11 05:10:09;;;;;;;19.90;11.23;;;;;;;12.96;85.19;97925.88;5063359;28;20040;-75
2021/05/11 05:12:34;;;;;;;20.65;10.98;;;;;;;13.06;84.79;97944.28;5050356;28;20024;-72
2021/05/11 05:15:00;;;;;;;17.98;10.10;;;;;;;12.91;84.83;97955.63;5073770;28;20065;-74
2021/05/11 05:17:25;;;;;;;19.77;11.23;;;;;;;13.04;84.88;97970.84;5054876;28;20118;-75
2021/05/11 05:19:51;;;;;;;19.65;10.93;;;;;;;12.98;85.08;97974.53;5073482;28;20032;-72
2021/05/11 05:22:17;;;;;;;19.40;11.27;;;;;;;12.89;84.88;97979.47;5052605;28;20028;-67
2021/05/11 05:27:19;;;;;;;19.58;10.30;;;;;;;12.99;85.42;97957.16;5073367;28;20039;-69
2021/05/11 05:29:45;;;;;;;19.17;10.38;;;;;;;13.03;85.36;97936.63;5072965;28;20052;-68
2021/05/11 05:32:10;;;;;;;17.20;10.30;;;;;;;13.02;85.45;97914.06;5072561;28;20426;-74
2021/05/11 05:34:35;;;;;;;20.33;11.00;;;;;;;13.12;84.71;97910.72;5072685;28;20103;-74
2021/05/11 05:37:01;;;;;;;22.23;10.98;;;;;;;13.15;84.46;97907.50;5051832;28;20041;-73
2021/05/11 05:39:39;;;;;;;18.33;10.02;;;;;;;13.29;84.40;97929.81;5071734;28;20035;-72
2021/05/11 05:42:05;;;;;;;18.45;10.50;;;;;;;13.10;84.16;97918.31;5072547;28;20051;-72
2021/05/11 05:44:31;;;;;;;18.10;10.10;;;;;;;13.20;84.29;97923.91;5059334;28;20029;-73
2021/05/11 05:46:57;;;;;;;15.98;9.32;;;;;;;13.33;83.77;97934.50;5044006;28;20467;-73
2021/05/11 05:49:24;;;;;;;16.92;9.73;;;;;;;13.40;83.21;97933.56;5065700;28;20060;-71
2021/05/11 05:51:50;;;;;;;16.58;9.65;;;;;;;13.43;82.08;97922.19;5049906;28;20059;-73
2021/05/11 05:54:16;;;;;;;14.75;9.50;;;;;;;13.40;82.38;97937.09;5064160;28;20028;-72
2021/05/11 05:56:41;;;;;;;14.07;8.73;;;;;;;13.42;82.79;97937.69;5055367;28;20089;-74
2021/05/11 05:59:07;;;;;;;14.70;8.13;;;;;;;13.53;82.28;97916.97;5054288;28;20052;-72
2021/05/11 06:01:32;;;;;;;12.70;7.50;;;;;;;13.61;82.79;97927.44;5064031;28;20422;-72
2021/05/11 06:04:07;;;;;;;15.80;9.20;;;;;;;13.49;82.87;97907.63;5042252;28;20020;-74
2021/05/11 06:06:32;;;;;;;13.98;8.68;;;;;;;13.49;82.79;97923.94;5071913;28;20095;-74
2021/05/11 06:08:59;;;;;;;15.23;9.68;;;;;;;13.49;83.24;97924.78;5052020;28;20032;-72
2021/05/11 06:12:17;;;;;;;16.02;9.50;;;;;;;13.37;82.98;97954.72;5050748;28;20013;-71
2021/05/11 06:17:27;;;;;;;15.43;8.13;;;;;;;13.48;82.75;97955.72;5061219;28;20138;-75
2021/05/11 06:19:54;;;;;;;13.77;8.20;;;;;;;13.58;82.45;97945.03;5048811;28;20051;-74
2021/05/11 06:22:19;;;;;;;12.18;7.68;;;;;;;13.57;81.44;97937.13;5043070;28;20029;-74
2021/05/11 06:24:45;;;;;;;12.48;8.40;;;;;;;13.70;81.86;97936.84;5067837;28;20024;-74
2021/05/11 06:27:12;;;;;;;14.82;8.05;;;;;;;13.72;81.87;97923.81;5044871;28;20032;-75
2021/05/11 06:29:43;;;;;;;13.85;8.32;;;;;;;13.86;81.15;97934.38;5061996;28;20501;-69
2021/05/11 06:32:09;;;;;;;13.02;8.32;;;;;;;13.91;80.89;97934.47;5067025;28;20028;-72
2021/05/11 06:34:35;;;;;;;13.95;8.15;;;;;;;13.94;81.09;97937.53;5046944;28;20398;-68
2021/05/11 06:37:01;;;;;;;12.05;7.38;;;;;;;13.89;80.76;97931.19;5062937;28;20033;-73
2021/05/11 06:39:26;;;;;;;12.15;7.50;;;;;;;13.89;80.83;97901.28;5047133;28;20032;-72
2021/05/11 06:41:55;;;;;;;12.85;7.38;;;;;;;13.89;81.21;97901.28;5065483;28;20505;-70
2021/05/11 06:44:42;;;;;;;11.23;7.07;;;;;;;14.05;80.97;97897.72;5067585;28;20056;-74
2021/05/11 06:50:14;;;;;;;14.15;8.43;;;;;;;14.15;79.73;97897.06;5057232;28;20036;-74
2021/05/11 06:52:46;;;;;;;13.00;8.13;;;;;;;14.18;79.78;97921.88;5058532;28;20401;-69
2021/05/11 06:55:14;;;;;;;12.27;7.55;;;;;;;14.24;79.32;97918.13;5063288;28;20017;-68
2021/05/11 06:57:40;;;;;;;11.77;7.05;;;;;;;14.52;78.52;97910.13;5063293;28;20055;-68
2021/05/11 07:00:06;;;;;;;10.55;6.90;;;;;;;14.48;78.04;97905.16;5063315;28;20028;-68
2021/05/11 07:02:32;;;;;;;9.57;6.70;;;;;;;14.67;77.67;97896.72;5067816;28;20070;-69
2021/05/11 07:04:57;;;;;;;8.23;6.28;;;;;;;14.69;77.47;97914.47;5043605;28;20029;-69
2021/05/11 07:07:23;;;;;;;13.05;7.00;;;;;;;14.71;76.99;97922.38;5046905;28;20021;-68
2021/05/11 07:14:59;;;;;;;8.70;5.75;;;;;;;14.79;76.86;97888.44;5057695;28;20043;-75
2021/05/11 07:17:27;;;;;;;11.18;6.50;;;;;;;14.85;76.67;97879.25;5063591;28;20095;-74
2021/05/11 07:19:53;;;;;;;10.10;6.43;;;;;;;14.80;76.41;97860.13;5044427;28;20028;-74
2021/05/11 07:22:19;;;;;;;8.40;5.55;;;;;;;15.00;76.30;97884.88;5042237;28;20154;-72
2021/05/11 07:24:47;;;;;;;9.60;6.22;;;;;;;14.88;75.93;97884.19;5057102;28;20029;-73
2021/05/11 07:27:30;;;;;;;8.23;5.90;;;;;;;14.87;76.31;97874.38;5038986;28;20074;-72
2021/05/11 07:29:58;;;;;;;7.82;5.30;;;;;;;14.93;75.70;97859.75;5049221;28;20028;-72
2021/05/11 07:32:24;;;;;;;9.38;5.88;;;;;;;15.06;75.44;97862.09;5064368;28;20488;-71
2021/05/11 07:34:53;;;;;;;8.63;5.93;;;;;;;15.03;75.47;97862.59;5060193;28;20029;-72
2021/05/11 07:37:19;;;;;;;8.38;5.97;;;;;;;15.20;75.09;97858.97;5064948;28;20086;-73
2021/05/11 07:39:45;;;;;;;8.73;5.78;;;;;;;15.10;75.72;97863.22;5044324;28;20479;-75
2021/05/11 07:42:11;;;;;;;7.75;5.20;;;;;;;15.24;74.93;97849.19;5059865;28;20020;-74
2021/05/11 07:44:42;;;;;;;7.40;5.28;;;;;;;15.39;74.21;97843.06;5043217;28;20078;-76
2021/05/11 07:47:13;;;;;;;8.85;5.75;;;;;;;15.47;73.63;97862.50;5046578;28;20020;-76
2021/05/11 08:06:23;;;;;;;5.50;4.05;;;;;;;15.93;71.98;97841.13;5065967;28;20110;-74
2021/05/11 08:16:34;;;;;;;13.18;5.68;;;;;;;15.94;71.75;97850.94;5065735;28;20032;-68
2021/05/11 08:19:10;;;;;;;14.52;6.00;;;;;;;16.20;71.07;97870.22;5047040;28;20028;-68
2021/05/11 08:30:00;;;;;;;8.13;4.32;;;;;;;16.58;69.41;97874.56;5008371;28;20047;-72
2021/05/11 08:32:26;;;;;;;6.75;3.80;;;;;;;16.86;69.04;97873.34;5067535;28;20115;-68
2021/05/11 08:34:51;;;;;;;7.93;4.20;;;;;;;16.86;68.45;97870.59;5068235;28;20066;-68
2021/05/11 08:37:17;;;;;;;5.38;3.88;;;;;;;16.63;68.86;97860.09;5061894;28;20036;-68
2021/05/11 08:39:46;;;;;;;4.82;3.58;;;;;;;16.60;69.08;97841.50;5063778;28;20588;-68
2021/05/11 08:42:12;;;;;;;4.85;3.20;;;;;;;16.79;68.87;97823.63;5070236;28;20041;-70
2021/05/11 08:44:38;;;;;;;5.45;3.40;;;;;;;17.06;67.65;97849.94;5061991;28;20116;-75
2021/05/11 08:47:04;;;;;;;5.28;3.70;;;;;;;16.77;67.28;97853.09;5052066;28;20104;-73
2021/05/11 08:49:29;;;;;;;3.90;3.30;;;;;;;16.70;67.70;97818.88;5049997;28;20024;-73
2021/05/11 08:54:32;;;;;;;4.75;3.50;;;;;;;16.95;67.88;97826.38;5060952;28;20033;-74
2021/05/11 09:05:43;;;;;;;5.18;3.63;;;;;;;17.37;66.59;97831.69;5071099;28;20474;-72
2021/05/11 09:08:28;;;;;;;3.85;2.88;;;;;;;17.39;66.49;97836.84;5065293;28;20063;-75
2021/05/11 09:25:31;;;;;;;4.13;2.88;;;;;;;17.42;66.56;97869.13;5078466;28;20046;-72
2021/05/11 09:28:02;;;;;;;4.43;3.00;;;;;;;17.00;67.74;97860.03;5079139;28;20486;-69
2021/05/11 09:33:33;;;;;;;5.50;3.43;;;;;;;17.14;68.15;97878.66;5069712;28;20033;-69
2021/05/11 09:56:08;;;;;;;3.50;2.67;;;;;;;17.94;64.42;97868.91;5065301;28;20543;-75
2021/05/11 10:46:59;;;;;;;4.50;3.05;;;;;;;18.16;64.38;97835.00;5056251;28;20769;-67
2021/05/11 10:49:33;;;;;;;4.43;2.85;;;;;;;17.98;63.98;97832.81;5053878;28;20028;-67
2021/05/11 10:52:10;;;;;;;6.85;3.17;;;;;;;18.35;62.58;97833.28;5041060;28;20762;-71
2021/05/11 10:54:57;;;;;;;4.22;2.83;;;;;;;18.18;63.39;97832.78;5044342;28;20112;-67
2021/05/11 10:57:45;;;;;;;3.83;2.67;;;;;;;18.46;63.35;97842.28;5050779;28;20020;-67
2021/05/11 11:00:28;;;;;;;5.10;3.20;;;;;;;18.60;62.96;97845.25;5051071;28;20059;-71
2021/05/11 11:03:17;;;;;;;3.67;3.05;;;;;;;18.77;61.68;97845.78;5049373;28;20031;-69
2021/05/11 11:05:43;;;;;;;;;;;;;;;18.91;62.43;97837.78;5054743;28;20114;-68
2021/05/11 11:08:27;;;;;;;3.85;2.60;;;;;;;19.11;61.16;97838.78;5065615;28;19939;-67
2021/05/11 11:11:17;;;;;;;3.90;2.65;;;;;;;19.31;60.97;97838.69;5045102;28;20395;-68
2021/05/11 11:13:46;;;;;;;2.85;2.47;;;;;;;19.12;61.76;97838.50;5049918;28;20102;-68
2021/05/11 11:16:12;;;;;;;3.93;3.10;;;;;;;18.91;61.85;97840.50;5048863;28;20721;-68
2021/05/11 11:18:38;;;;;;;3.50;3.08;;;;;;;18.54;62.99;97863.63;5048532;28;20028;-68
2021/05/11 11:23:53;;;;;;;6.75;4.55;;;;;;;18.06;64.09;97868.66;5059477;28;20123;-67
2021/05/11 11:26:41;;;;;;;;;;;;;;;18.00;64.38;97864.28;5063647;28;20024;-67
2021/05/11 11:29:09;;;;;;;6.18;5.57;;;;;;;18.11;64.40;97857.72;5068979;28;19931;-67
2021/05/11 11:31:38;;;;;;;6.20;5.60;;;;;;;18.11;64.82;97844.03;5067535;28;20397;-67
2021/05/11 11:34:23;;;;;;;7.03;6.10;;;;;;;18.32;63.96;97833.84;5061494;28;20390;-67
2021/05/11 11:36:56;;;;;;;7.25;5.85;;;;;;;18.27;63.79;97835.78;5066804;28;20517;-68
2021/05/11 11:39:28;;;;;;;6.22;5.60;;;;;;;18.61;63.72;97839.50;5071815;28;20041;-68
2021/05/11 11:41:56;;;;;;;6.63;5.93;;;;;;;18.80;62.85;97845.22;5070894;28;20032;-66
2021/05/11 11:44:30;;;;;;;8.15;5.82;;;;;;;18.89;62.28;97833.69;5070693;28;20119;-67
2021/05/11 11:47:12;;;;;;;6.05;4.97;;;;;;;19.63;60.82;97829.94;5049194;28;20680;-64
2021/05/11 11:49:42;;;;;;;5.35;4.68;;;;;;;19.80;60.27;97823.25;5051347;28;20041;-67
2021/05/11 11:52:16;;;;;;;5.25;4.75;;;;;;;20.05;58.66;97864.22;5062303;28;20032;-67
2021/05/11 11:57:53;;;;;;;4.88;4.38;;;;;;;19.11;61.03;97874.44;5057387;28;20366;-68
2021/05/11 12:00:26;;;;;;;6.80;3.97;;;;;;;18.67;62.53;97872.38;5041320;28;20028;-68
2021/05/11 12:03:00;;;;;;;4.82;4.18;;;;;;;18.68;62.31;97876.75;5052237;28;20581;-68
2021/05/11 12:05:30;;;;;;;6.40;5.15;;;;;;;17.81;65.23;97883.16;5061296;28;20705;-68
2021/05/11 12:08:19;;;;;;;7.00;4.32;;;;;;;18.03;64.42;97885.63;5070422;28;20044;-67
2021/05/11 12:11:02;;;;;;;4.90;4.30;;;;;;;18.10;64.38;97886.19;5051272;28;20056;-68
2021/05/11 12:13:33;;;;;;;5.00;4.20;;;;;;;17.88;65.46;97894.66;5055283;28;20028;-67
2021/05/11 12:16:16;;;;;;;5.20;3.80;;;;;;;17.80;65.92;97894.38;5072788;28;20024;-67
2021/05/11 12:19:01;;;;;;;4.63;3.60;;;;;;;17.94;66.25;97890.00;5072568;28;20028;-67
2021/05/11 12:21:26;;;;;;;6.13;4.00;;;;;;;18.01;65.41;97897.94;5054715;28;20032;-67
2021/05/11 12:24:10;;;;;;;6.93;3.97;;;;;;;17.81;66.10;97899.56;5052826;28;20542;-67
2021/05/11 12:26:45;;;;;;;4.60;3.88;;;;;;;17.91;67.17;97899.56;5058119;28;20513;-64
2021/05/11 12:29:12;;;;;;;8.38;4.10;;;;;;;18.33;65.45;97886.69;5059720;28;20032;-68
2021/05/11 12:31:43;;;;;;;3.88;3.42;;;;;;;18.53;64.65;97883.91;5071589;28;20132;-67
2021/05/11 12:34:12;;;;;;;4.10;3.53;;;;;;;18.89;63.72;97881.13;5049664;28;20024;-70
2021/05/11 12:36:50;;;;;;;5.22;3.25;;;;;;;18.93;63.06;97887.66;5057014;28;20021;-66
2021/05/11 12:39:24;;;;;;;10.32;3.20;;;;;;;19.05;63.16;97887.34;5070357;28;20093;-64
2021/05/11 12:41:49;;;;;;;4.15;3.10;;;;;;;19.22;62.11;97882.31;5066109;28;20056;-68
2021/05/11 12:44:29;;;;;;;3.00;2.55;;;;;;;19.09;62.51;97879.38;5071286;28;20063;-72
2021/05/11 12:47:01;;;;;;;3.42;2.22;;;;;;;19.17;62.35;97876.03;5051753;28;20032;-68
2021/05/11 12:49:27;;;;;;;3.38;2.50;;;;;;;19.29;61.19;97875.72;5054271;28;20029;-70
2021/05/11 12:51:54;;;;;;;3.00;2.30;;;;;;;19.30;61.21;97872.69;5064537;28;20059;-66
2021/05/11 12:54:21;;;;;;;4.75;2.50;;;;;;;19.42;61.18;97880.56;5064589;28;20406;-64
2021/05/11 13:28:16;;;;;;;9.38;6.85;;;;;;;17.01;70.79;97905.38;5066958;28;20468;-69
2021/05/11 13:30:49;;;;;;;8.60;6.82;;;;;;;16.75;70.64;97909.06;5045928;28;20017;-69
2021/05/11 13:33:25;;;;;;;10.80;5.60;;;;;;;16.53;70.98;97917.38;5056639;28;20104;-68
2021/05/11 13:35:50;;;;;;;6.35;5.47;;;;;;;16.32;72.08;97917.25;5040334;28;20188;-68
2021/05/11 13:38:16;;;;;;;6.72;4.88;;;;;;;16.12;72.40;97934.28;5061357;28;20155;-69
2021/05/11 13:40:41;;;;;;;6.85;4.80;;;;;;;15.73;73.60;97947.31;5051042;28;20051;-69
2021/05/11 13:43:06;;;;;;;7.55;4.47;;;;;;;15.60;73.66;97942.25;5064801;28;20102;-69
2021/05/11 13:45:32;;;;;;;8.10;5.18;;;;;;;15.40;74.45;97951.81;5069817;28;20036;-69
2021/05/11 13:48:01;;;;;;;7.25;4.28;;;;;;;15.30;74.61;97948.97;5068953;28;20067;-68
2021/05/11 13:50:42;;;;;;;6.38;4.85;;;;;;;15.28;74.89;97954.72;5058390;28;20032;-66
2021/05/11 13:53:08;;;;;;;7.75;4.05;;;;;;;15.33;75.46;97967.56;5059621;28;20032;-68
2021/05/11 14:03:45;;;;;;;5.75;3.50;;;;;;;15.25;75.08;97977.03;5050300;28;20070;-67
2021/05/11 14:06:11;;;;;;;5.28;3.85;;;;;;;15.39;74.59;97968.47;5055388;28;20504;-66
2021/05/11 14:08:36;;;;;;;5.03;3.67;;;;;;;15.40;74.13;97975.53;5053340;28;20401;-66
2021/05/11 14:11:02;;;;;;;4.90;3.20;;;;;;;15.38;74.73;97981.25;5049783;28;20040;-68
2021/05/11 14:13:27;;;;;;;4.07;3.30;;;;;;;15.29;74.98;97983.59;5033952;28;20048;-67
2021/05/11 14:15:52;;;;;;;5.10;3.40;;;;;;;15.26;75.94;97986.00;5057106;28;20021;-67
2021/05/11 14:18:18;;;;;;;4.63;3.03;;;;;;;15.10;75.68;97988.53;5058601;28;20040;-67
2021/05/11 14:20:43;;;;;;;4.55;3.25;;;;;;;15.03;76.17;97982.44;5060698;28;20041;-66
2021/05/11 14:23:08;;;;;;;3.85;2.97;;;;;;;14.99;76.97;97986.75;5068321;28;20047;-67
2021/05/11 14:25:33;;;;;;;3.90;2.72;;;;;;;14.96;78.00;97987.28;5068549;28;20033;-68
2021/05/11 14:27:59;;;;;;;4.25;2.90;;;;;;;15.05;77.73;97982.22;5068118;28;20035;-67
2021/05/11 14:30:24;;;;;;;3.75;2.47;;;;;;;15.08;77.56;97974.34;5062148;28;20021;-67
2021/05/11 14:32:49;;;;;;;5.07;2.80;;;;;;;15.12;77.49;97970.03;5068725;28;20482;-67
2021/05/11 14:35:15;;;;;;;5.43;2.38;;;;;;;15.14;77.90;97977.94;5059292;28;20362;-67
2021/05/11 14:37:40;;;;;;;3.00;2.30;;;;;;;15.08;77.98;97979.78;5055983;28;20048;-67
2021/05/11 14:40:06;;;;;;;3.83;2.40;;;;;;;15.07;78.64;97974.63;5048928;28;20033;-67
2021/05/11 14:42:31;;;;;;;3.08;2.03;;;;;;;14.82;78.08;97967.72;5031417;28;20140;-68
2021/05/11 14:44:57;;;;;;;3.20;2.50;;;;;;;14.76;79.93;97967.91;5049006;28;20028;-68
2021/05/11 14:47:22;;;;;;;3.63;2.22;;;;;;;14.64;80.04;97965.28;5048507;28;20065;-68
2021/05/11 14:49:47;;;;;;;3.35;2.58;;;;;;;14.53;80.41;97958.88;5054432;28;20020;-69
2021/05/11 14:52:13;;;;;;;2.85;1.98;;;;;;;14.44;82.17;97954.91;5064354;28;20028;-68
2021/05/11 14:54:40;;;;;;;7.55;2.40;;;;;;;14.39;81.92;97971.16;5049565;28;20035;-69
2021/05/11 14:57:05;;;;;;;3.60;2.17;;;;;;;14.35;83.03;97970.00;5050387;28;20111;-67
2021/05/11 14:59:30;;;;;;;3.55;1.92;;;;;;;14.26;83.29;97964.16;5030722;28;20115;-68
2021/05/11 15:01:55;;;;;;;2.47;1.77;;;;;;;14.22;83.34;97950.19;5067570;28;20060;-68
2021/05/11 15:04:21;;;;;;;1.80;1.50;;;;;;;14.34;83.36;97957.47;5058529;28;20024;-67
2021/05/11 15:06:46;;;;;;;2.15;1.60;;;;;;;14.20;83.58;97954.25;5056392;28;20064;-68
2021/05/11 15:09:12;;;;;;;2.67;1.85;;;;;;;14.27;83.45;97957.63;5063011;28;20041;-68
2021/05/11 15:11:37;;;;;;;1.90;1.60;;;;;;;14.33;83.26;97964.81;5061597;28;20041;-68
2021/05/11 15:14:03;;;;;;;2.47;1.88;;;;;;;14.29;83.77;97971.00;5052902;28;20028;-68
2021/05/11 15:16:31;;;;;;;2.65;2.00;;;;;;;14.19;83.23;97966.22;5056662;28;20032;-67
2021/05/11 15:18:56;;;;;;;2.58;1.75;;;;;;;14.17;82.75;97980.06;5039516;28;20082;-67
2021/05/11 15:21:22;;;;;;;3.22;1.83;;;;;;;14.05;83.11;97973.88;5059515;28;20033;-69
2021/05/11 15:23:47;;;;;;;3.17;1.70;;;;;;;13.89;84.45;97980.94;5057356;28;20494;-66
2021/05/11 15:26:13;;;;;;;3.85;1.50;;;;;;;14.01;85.46;98008.06;5072625;28;20021;-67
2021/05/11 15:28:39;;;;;;;2.67;1.58;;;;;;;13.94;85.02;98001.97;5067487;28;20440;-66
2021/05/11 15:31:05;;;;;;;3.15;1.23;;;;;;;13.90;84.44;98004.34;5052880;28;20052;-67
2021/05/11 15:33:30;;;;;;;1.27;1.10;;;;;;;13.82;84.81;98011.00;5070873;28;20075;-67
2021/05/11 15:35:58;;;;;;;1.90;1.13;;;;;;;13.76;84.31;98014.69;5041747;28;20081;-67